| time (UTC) | temp C | wind direction | speed KPH | gust KPH | rain 1hr cm | rain 24hr cm | rain mn cm | humidity % | barometer mb |
| 20260504130601 | 14 | 236 | 6.4 | 16.1 | 0.00 | 0.00 | 0.00 | 56 | |
| 20260504130401 | 14 | 212 | 6.4 | 16.1 | 0.00 | 0.00 | 0.00 | 55 | |
| 20260504130201 | 14 | 238 | 8.0 | 20.9 | 0.00 | 0.00 | 0.00 | 55 | |
| 20260504120200 | 12 | 242 | 9.7 | 22.5 | 0.00 | 0.00 | 0.00 | 59 | |
| 20260504110600 | 11 | 229 | 3.2 | 12.9 | 0.00 | 0.00 | 0.00 | 64 | |
| 20260504110400 | 11 | 239 | 3.2 | 12.9 | 0.00 | 0.00 | 0.00 | 64 | |
| 20260504110159 | 11 | 240 | 3.2 | 11.3 | 0.00 | 0.00 | 0.00 | 64 | |
| 20260504100600 | 11 | 218 | 3.2 | 12.9 | 0.00 | 0.00 | 0.00 | 65 | |
| 20260504100400 | 11 | 216 | 4.8 | 12.9 | 0.00 | 0.00 | 0.00 | 65 | |
| 20260504082005 | 11 | 239 | 0.0 | 3.2 | 0.00 | 0.00 | 0.00 | 65 | |
| 20260504081801 | 11 | 239 | 0.0 | 3.2 | 0.00 | 0.00 | 0.00 | 65 | |
| 20260504081401 | 11 | 239 | 0.0 | 3.2 | 0.00 | 0.00 | 0.00 | 65 | |
| 20260504081005 | 11 | 239 | 0.0 | 3.2 | 0.00 | 0.00 | 0.00 | 65 | |
| 20260504080758 | 11 | 239 | 0.0 | 3.2 | 0.00 | 0.00 | 0.00 | 65 | |
| 20260504080601 | 11 | 238 | 0.0 | 3.2 | 0.00 | 0.00 | 0.00 | 66 | |
| 20260504080402 | 11 | 238 | 0.0 | 3.2 | 0.00 | 0.00 | 0.00 | 65 | |
| 20260504070359 | 10 | 233 | 0.0 | 4.8 | 0.00 | 0.00 | 0.00 | 66 | |
| 20260504070159 | 10 | 233 | 1.6 | 4.8 | 0.00 | 0.00 | 0.00 | 66 | |
| 20260504050559 | 8 | 231 | 0.0 | 0.0 | 0.00 | 0.00 | 0.00 | 68 | |
| 20260504050359 | 8 | 231 | 0.0 | 0.0 | 0.00 | 0.00 | 0.00 | 66 | |
| 20260504050159 | 8 | 231 | 0.0 | 0.0 | 0.00 | 0.00 | 0.00 | 67 | |
| 20260504050003 | 8 | 231 | 0.0 | 0.0 | 0.00 | 0.00 | 0.00 | 68 | |
| 20260504045801 | 8 | 230 | 0.0 | 0.0 | 0.00 | 0.00 | 0.00 | 68 | |
| 20260504045559 | 8 | 231 | 0.0 | 0.0 | 0.00 | 0.00 | 0.00 | 68 | |
| 20260504045359 | 8 | 231 | 0.0 | 0.0 | 0.00 | 0.00 | 0.00 | 68 | |
| 20260504045159 | 8 | 231 | 0.0 | 0.0 | 0.00 | 0.00 | 0.00 | 68 | |
| 20260504045003 | 8 | 231 | 0.0 | 0.0 | 0.00 | 0.00 | 0.00 | 67 | |
| 20260504044800 | 8 | 231 | 0.0 | 1.6 | 0.00 | 0.00 | 0.00 | 68 | |
| 20260504044559 | 8 | 231 | 0.0 | 1.6 | 0.00 | 0.00 | 0.00 | 69 | |
| 20260504044400 | 8 | 230 | 0.0 | 1.6 | 0.00 | 0.00 | 0.00 | 67 | |
| 20260504044200 | 8 | 230 | 0.0 | 1.6 | 0.00 | 0.00 | 0.00 | 67 | |
| 20260504043759 | 8 | 230 | 0.0 | 0.0 | 0.00 | 0.00 | 0.00 | 66 | |
| 20260504043602 | 8 | 230 | 0.0 | 0.0 | 0.00 | 0.00 | 0.00 | 66 | |
| 20260504043401 | 8 | 231 | 0.0 | 0.0 | 0.00 | 0.00 | 0.00 | 66 | |
| 20260504043200 | 8 | 231 | 0.0 | 0.0 | 0.00 | 0.00 | 0.00 | 66 | |
| 20260504043005 | 8 | 230 | 0.0 | 0.0 | 0.00 | 0.00 | 0.00 | 66 | |
| 20260504042400 | 8 | 230 | 0.0 | 3.2 | 0.00 | 0.00 | 0.00 | 67 | |
| 20260504042201 | 8 | 231 | 0.0 | 3.2 | 0.00 | 0.00 | 0.00 | 68 | |
| 20260504042005 | 8 | 230 | 0.0 | 3.2 | 0.00 | 0.00 | 0.00 | 70 | |
| 20260504041800 | 8 | 231 | 1.6 | 4.8 | 0.00 | 0.00 | 0.00 | 69 | |
| 20260504041159 | 8 | 231 | 1.6 | 4.8 | 0.00 | 0.00 | 0.00 | 69 | |
| 20260504040601 | 8 | 230 | 1.6 | 4.8 | 0.00 | 0.00 | 0.00 | 69 | |
| 20260504040400 | 8 | 230 | 1.6 | 4.8 | 0.00 | 0.00 | 0.00 | 69 | |
| 20260504040201 | 8 | 228 | 1.6 | 3.2 | 0.00 | 0.00 | 0.00 | 69 | |
| 20260504040008 | 8 | 228 | 1.6 | 3.2 | 0.00 | 0.00 | 0.00 | 69 | |
| 20260504035801 | 8 | 228 | 0.0 | 1.6 | 0.00 | 0.00 | 0.00 | 69 | |
| 20260504035600 | 8 | 228 | 0.0 | 1.6 | 0.00 | 0.00 | 0.00 | 69 | |
| 20260504035359 | 8 | 228 | 0.0 | 1.6 | 0.00 | 0.00 | 0.00 | 70 | |
| 20260504035200 | 8 | 228 | 0.0 | 1.6 | 0.00 | 0.00 | 0.00 | 70 | |
| 20260504035004 | 8 | 228 | 0.0 | 0.0 | 0.00 | 0.00 | 0.00 | 70 | |
| 20260504034759 | 8 | 228 | 0.0 | 0.0 | 0.00 | 0.00 | 0.00 | 70 | |
| 20260504034600 | 8 | 227 | 0.0 | 0.0 | 0.00 | 0.00 | 0.00 | 70 | |
| 20260504034201 | 8 | 228 | 0.0 | 1.6 | 0.00 | 0.00 | 0.00 | 70 | |
| 20260504034005 | 8 | 228 | 0.0 | 1.6 | 0.00 | 0.00 | 0.00 | 69 | |
| 20260504033759 | 8 | 228 | 0.0 | 1.6 | 0.00 | 0.00 | 0.00 | 69 | |
| 20260504033601 | 8 | 228 | 0.0 | 1.6 | 0.00 | 0.00 | 0.00 | 68 | |
| 20260504033159 | 8 | 228 | 0.0 | 1.6 | 0.00 | 0.00 | 0.00 | 68 | |
| 20260504033005 | 8 | 228 | 0.0 | 1.6 | 0.00 | 0.00 | 0.00 | 67 | |
| 20260504032759 | 8 | 228 | 0.0 | 1.6 | 0.00 | 0.00 | 0.00 | 68 | |
| 20260504032559 | 8 | 228 | 0.0 | 1.6 | 0.00 | 0.00 | 0.00 | 68 | |
| 20260504032202 | 8 | 228 | 0.0 | 0.0 | 0.00 | 0.00 | 0.00 | 68 | |
| 20260504032004 | 8 | 228 | 0.0 | 0.0 | 0.00 | 0.00 | 0.00 | 69 | |
| 20260504031600 | 8 | 228 | 0.0 | 0.0 | 0.00 | 0.00 | 0.00 | 69 | |
| 20260504031359 | 8 | 228 | 0.0 | 3.2 | 0.00 | 0.00 | 0.00 | 69 | |
| 20260504031200 | 8 | 228 | 0.0 | 3.2 | 0.00 | 0.00 | 0.00 | 69 | |
| 20260504031005 | 8 | 227 | 0.0 | 3.2 | 0.00 | 0.00 | 0.00 | 69 | |
| 20260504030800 | 8 | 228 | 0.0 | 3.2 | 0.00 | 0.00 | 0.00 | 69 | |
| 20260504030601 | 8 | 228 | 0.0 | 3.2 | 0.00 | 0.00 | 0.00 | 69 | |
| 20260504030359 | 8 | 228 | 0.0 | 3.2 | 0.00 | 0.00 | 0.00 | 69 | |
| 20260504030200 | 8 | 228 | 0.0 | 3.2 | 0.00 | 0.00 | 0.00 | 69 | |
| 20260504030006 | 9 | 228 | 0.0 | 3.2 | 0.00 | 0.00 | 0.00 | 69 | |
| 20260504025800 | 9 | 228 | 0.0 | 3.2 | 0.00 | 0.00 | 0.00 | 69 | |
| 20260504025600 | 9 | 228 | 0.0 | 0.0 | 0.00 | 0.00 | 0.00 | 69 | |
| 20260504025400 | 9 | 227 | 0.0 | 1.6 | 0.00 | 0.00 | 0.00 | 69 | |
| 20260504025201 | 9 | 228 | 0.0 | 1.6 | 0.00 | 0.00 | 0.00 | 69 | |
| 20260504024759 | 9 | 228 | 0.0 | 1.6 | 0.00 | 0.00 | 0.00 | 69 | |
| 20260504024600 | 9 | 228 | 0.0 | 1.6 | 0.00 | 0.00 | 0.00 | 69 | |
| 20260504024359 | 9 | 228 | 0.0 | 0.0 | 0.00 | 0.00 | 0.00 | 69 | |
| 20260504024200 | 9 | 228 | 0.0 | 0.0 | 0.00 | 0.00 | 0.00 | 70 | |
| 20260504024005 | 9 | 228 | 0.0 | 0.0 | 0.00 | 0.00 | 0.00 | 70 | |
| 20260504023801 | 9 | 228 | 0.0 | 0.0 | 0.00 | 0.00 | 0.00 | 69 | |
| 20260504023559 | 9 | 228 | 0.0 | 0.0 | 0.00 | 0.00 | 0.00 | 69 | |
| 20260504023401 | 9 | 228 | 0.0 | 0.0 | 0.00 | 0.00 | 0.00 | 69 | |
| 20260504023005 | 10 | 228 | 0.0 | 3.2 | 0.00 | 0.00 | 0.00 | 68 | |
| 20260504022759 | 10 | 228 | 0.0 | 3.2 | 0.00 | 0.00 | 0.00 | 68 | |
| 20260504022559 | 10 | 228 | 0.0 | 3.2 | 0.00 | 0.00 | 0.00 | 67 | |
| 20260504022359 | 10 | 228 | 0.0 | 3.2 | 0.00 | 0.00 | 0.00 | 67 | |
| 20260504022005 | 10 | 228 | 0.0 | 0.0 | 0.00 | 0.00 | 0.00 | 66 | |
| 20260504021600 | 10 | 228 | 0.0 | 0.0 | 0.00 | 0.00 | 0.00 | 66 | |
| 20260504021401 | 10 | 228 | 0.0 | 0.0 | 0.00 | 0.00 | 0.00 | 66 | |
| 20260504021202 | 10 | 228 | 0.0 | 0.0 | 0.00 | 0.00 | 0.00 | 66 | |
| 20260504021006 | 10 | 227 | 0.0 | 0.0 | 0.00 | 0.00 | 0.00 | 65 | |
| 20260504020801 | 10 | 228 | 0.0 | 0.0 | 0.00 | 0.00 | 0.00 | 64 | |
| 20260504020600 | 10 | 228 | 0.0 | 0.0 | 0.00 | 0.00 | 0.00 | 64 | |
| 20260504020359 | 10 | 228 | 0.0 | 0.0 | 0.00 | 0.00 | 0.00 | 64 | |
| 20260504020201 | 10 | 228 | 0.0 | 0.0 | 0.00 | 0.00 | 0.00 | 63 | |
| 20260504020003 | 10 | 228 | 0.0 | 0.0 | 0.00 | 0.00 | 0.00 | 62 | |
| 20260504015600 | 10 | 228 | 0.0 | 0.0 | 0.00 | 0.00 | 0.00 | 62 | |
| 20260504015201 | 10 | 228 | 0.0 | 0.0 | 0.00 | 0.00 | 0.00 | 62 | |
| 20260504015004 | 10 | 228 | 0.0 | 0.0 | 0.00 | 0.00 | 0.00 | 62 | |
| 20260504014759 | 10 | 227 | 0.0 | 0.0 | 0.00 | 0.00 | 0.00 | 62 | |
| 20260504014600 | 10 | 227 | 0.0 | 0.0 | 0.00 | 0.00 | 0.00 | 62 | |
| 20260504014400 | 10 | 227 | 0.0 | 0.0 | 0.00 | 0.00 | 0.00 | 60 | |
| 20260504013800 | 11 | 228 | 0.0 | 0.0 | 0.00 | 0.00 | 0.00 | 58 | |
| 20260504013359 | 11 | 228 | 0.0 | 0.0 | 0.00 | 0.00 | 0.00 | 58 | |
| 20260504013200 | 11 | 228 | 0.0 | 0.0 | 0.00 | 0.00 | 0.00 | 57 | |
| 20260504013004 | 11 | 228 | 0.0 | 0.0 | 0.00 | 0.00 | 0.00 | 57 | |
| 20260504012600 | 11 | 227 | 0.0 | 0.0 | 0.00 | 0.00 | 0.00 | 55 | |
| 20260504012201 | 11 | 228 | 0.0 | 0.0 | 0.00 | 0.00 | 0.00 | 55 | |
| 20260504012005 | 11 | 228 | 0.0 | 0.0 | 0.00 | 0.00 | 0.00 | 55 | |
| 20260504011800 | 11 | 228 | 0.0 | 0.0 | 0.00 | 0.00 | 0.00 | 54 | |
| 20260504011600 | 11 | 227 | 0.0 | 0.0 | 0.00 | 0.00 | 0.00 | 54 | |
| 20260504011200 | 12 | 228 | 0.0 | 0.0 | 0.00 | 0.00 | 0.00 | 53 | |
| 20260504011004 | 12 | 228 | 0.0 | 0.0 | 0.00 | 0.00 | 0.00 | 53 | |
| 20260504010759 | 12 | 228 | 0.0 | 0.0 | 0.00 | 0.00 | 0.00 | 52 | |
| 20260504010600 | 12 | 228 | 0.0 | 0.0 | 0.00 | 0.00 | 0.00 | 52 | |
| 20260504010400 | 12 | 228 | 0.0 | 0.0 | 0.00 | 0.00 | 0.00 | 52 | |
| 20260504010004 | 12 | 227 | 0.0 | 0.0 | 0.00 | 0.00 | 0.00 | 51 | |
| 20260504005800 | 12 | 228 | 0.0 | 0.0 | 0.00 | 0.00 | 0.00 | 51 | |
| 20260504005600 | 12 | 228 | 0.0 | 0.0 | 0.00 | 0.00 | 0.00 | 51 | |
| 20260504005400 | 12 | 228 | 0.0 | 0.0 | 0.00 | 0.00 | 0.00 | 51 | |
| 20260504005200 | 12 | 228 | 0.0 | 0.0 | 0.00 | 0.00 | 0.00 | 50 | |
| 20260504005005 | 12 | 228 | 0.0 | 0.0 | 0.00 | 0.00 | 0.00 | 49 | |
| 20260504004759 | 12 | 227 | 0.0 | 0.0 | 0.00 | 0.00 | 0.00 | 48 | |
| 20260504004601 | 13 | 228 | 0.0 | 0.0 | 0.00 | 0.00 | 0.00 | 49 | |
| 20260504004400 | 13 | 228 | 0.0 | 0.0 | 0.00 | 0.00 | 0.00 | 48 | |
| 20260504004159 | 13 | 228 | 0.0 | 0.0 | 0.00 | 0.00 | 0.00 | 48 | |
| 20260504004004 | 13 | 227 | 0.0 | 0.0 | 0.00 | 0.00 | 0.00 | 47 | |
| 20260504003800 | 13 | 228 | 0.0 | 0.0 | 0.00 | 0.00 | 0.00 | 46 | |
| 20260504003600 | 13 | 227 | 0.0 | 0.0 | 0.00 | 0.00 | 0.00 | 46 | |
| 20260504003005 | 13 | 228 | 0.0 | 1.6 | 0.00 | 0.00 | 0.00 | 45 | |
| 20260504002801 | 13 | 228 | 0.0 | 1.6 | 0.00 | 0.00 | 0.00 | 46 | |
| 20260504002600 | 13 | 227 | 0.0 | 1.6 | 0.00 | 0.00 | 0.00 | 46 | |
| 20260504002401 | 13 | 228 | 0.0 | 1.6 | 0.00 | 0.00 | 0.00 | 45 | |
| 20260504002201 | 13 | 228 | 0.0 | 1.6 | 0.00 | 0.00 | 0.00 | 44 | |
| 20260504002000 | 14 | 228 | 0.0 | 1.6 | 0.00 | 0.00 | 0.00 | 44 | |
| 20260504001800 | 14 | 228 | 0.0 | 1.6 | 0.00 | 0.00 | 0.00 | 44 | |
| 20260504001601 | 14 | 228 | 0.0 | 1.6 | 0.00 | 0.00 | 0.00 | 43 | |
| 20260504001400 | 14 | 228 | 0.0 | 1.6 | 0.00 | 0.00 | 0.00 | 42 | |
| 20260504001200 | 14 | 228 | 0.0 | 1.6 | 0.00 | 0.00 | 0.00 | 42 | |
| 20260504001005 | 14 | 228 | 0.0 | 3.2 | 0.00 | 0.00 | 0.00 | 41 | |
| 20260504000600 | 15 | 228 | 0.0 | 4.8 | 0.00 | 0.00 | 0.00 | 42 | |
| 20260504000401 | 15 | 228 | 0.0 | 4.8 | 0.00 | 0.00 | 0.00 | 41 | |
| 20260504000003 | 15 | 227 | 1.6 | 4.8 | 0.00 | 0.00 | 0.00 | 40 | |
| 20260503235758 | 15 | 228 | 0.0 | 3.2 | 0.00 | 0.00 | 0.00 | 40 | |
| 20260503235600 | 15 | 228 | 1.6 | 3.2 | 0.00 | 0.00 | 0.00 | 39 | |
| 20260503235401 | 15 | 228 | 0.0 | 3.2 | 0.00 | 0.00 | 0.00 | 39 | |
| 20260503235159 | 15 | 228 | 1.6 | 3.2 | 0.00 | 0.00 | 0.00 | 39 | |
| 20260503235004 | 15 | 228 | 1.6 | 6.4 | 0.00 | 0.00 | 0.00 | 39 | |
| 20260503234759 | 15 | 228 | 1.6 | 6.4 | 0.00 | 0.00 | 0.00 | 39 | |
| 20260503234559 | 15 | 228 | 1.6 | 6.4 | 0.00 | 0.00 | 0.00 | 38 | |
| 20260503234359 | 15 | 228 | 0.0 | 6.4 | 0.00 | 0.00 | 0.00 | 37 | |
| 20260503234200 | 15 | 228 | 3.2 | 6.4 | 0.00 | 0.00 | 0.00 | 37 | |
| 20260503234003 | 15 | 224 | 1.6 | 8.0 | 0.00 | 0.00 | 0.00 | 36 | |
| 20260503233400 | 15 | 222 | 3.2 | 8.0 | 0.00 | 0.00 | 0.00 | 36 | |
| 20260503233200 | 16 | 233 | 1.6 | 6.4 | 0.00 | 0.00 | 0.00 | 36 | |
| 20260503233006 | 16 | 237 | 1.6 | 6.4 | 0.00 | 0.00 | 0.00 | 35 | |
| 20260503232800 | 16 | 237 | 1.6 | 6.4 | 0.00 | 0.00 | 0.00 | 35 | |
| 20260503232600 | 16 | 237 | 1.6 | 6.4 | 0.00 | 0.00 | 0.00 | 35 | |
| 20260503232401 | 16 | 237 | 3.2 | 9.7 | 0.00 | 0.00 | 0.00 | 36 | |
| 20260503232200 | 16 | 238 | 3.2 | 9.7 | 0.00 | 0.00 | 0.00 | 35 | |
| 20260503231800 | 16 | 241 | 3.2 | 9.7 | 0.00 | 0.00 | 0.00 | 35 | |
| 20260503231601 | 16 | 241 | 3.2 | 9.7 | 0.00 | 0.00 | 0.00 | 35 | |
| 20260503231359 | 16 | 228 | 0.0 | 8.0 | 0.00 | 0.00 | 0.00 | 34 | |
| 20260503231200 | 16 | 227 | 1.6 | 8.0 | 0.00 | 0.00 | 0.00 | 35 | |
| 20260503231003 | 16 | 228 | 3.2 | 8.0 | 0.00 | 0.00 | 0.00 | 34 | |
| 20260503230601 | 16 | 253 | 1.6 | 6.4 | 0.00 | 0.00 | 0.00 | 35 | |
| 20260503230400 | 16 | 304 | 1.6 | 8.0 | 0.00 | 0.00 | 0.00 | 33 | |
| 20260503230005 | 16 | 359 | 3.2 | 8.0 | 0.00 | 0.00 | 0.00 | 34 | |
| 20260503225759 | 16 | 29 | 3.2 | 8.0 | 0.00 | 0.00 | 0.00 | 33 | |
| 20260503225600 | 16 | 354 | 4.8 | 8.0 | 0.00 | 0.00 | 0.00 | 33 | |
| 20260503225359 | 16 | 247 | 3.2 | 8.0 | 0.00 | 0.00 | 0.00 | 32 | |
| 20260503225200 | 16 | 290 | 1.6 | 8.0 | 0.00 | 0.00 | 0.00 | 34 | |
| 20260503225004 | 16 | 246 | 3.2 | 8.0 | 0.00 | 0.00 | 0.00 | 37 | |
| 20260503224801 | 16 | 324 | 3.2 | 8.0 | 0.00 | 0.00 | 0.00 | 34 | |
| 20260503224600 | 16 | 322 | 3.2 | 11.3 | 0.00 | 0.00 | 0.00 | 34 | |
| 20260503224400 | 16 | 329 | 3.2 | 11.3 | 0.00 | 0.00 | 0.00 | 34 | |
| 20260503224201 | 16 | 323 | 1.6 | 11.3 | 0.00 | 0.00 | 0.00 | 33 | |
| 20260503224005 | 16 | 354 | 4.8 | 11.3 | 0.00 | 0.00 | 0.00 | 33 | |
| 20260503223759 | 16 | 320 | 4.8 | 11.3 | 0.00 | 0.00 | 0.00 | 32 | |
| 20260503223600 | 16 | 10 | 4.8 | 11.3 | 0.00 | 0.00 | 0.00 | 33 | |
| 20260503223359 | 16 | 345 | 4.8 | 12.9 | 0.00 | 0.00 | 0.00 | 32 | |
| 20260503223201 | 16 | 8 | 6.4 | 14.5 | 0.00 | 0.00 | 0.00 | 32 | |
| 20260503223005 | 16 | 354 | 4.8 | 16.1 | 0.00 | 0.00 | 0.00 | 34 | |
| 20260503222800 | 16 | 340 | 1.6 | 16.1 | 0.00 | 0.00 | 0.00 | 34 | |
| 20260503222600 | 16 | 328 | 6.4 | 16.1 | 0.00 | 0.00 | 0.00 | 33 | |
| 20260503222400 | 17 | 263 | 6.4 | 16.1 | 0.00 | 0.00 | 0.00 | 34 | |
| 20260503222201 | 17 | 241 | 8.0 | 16.1 | 0.00 | 0.00 | 0.00 | 34 | |
| 20260503222005 | 17 | 228 | 4.8 | 12.9 | 0.00 | 0.00 | 0.00 | 33 | |
| 20260503221800 | 17 | 327 | 4.8 | 12.9 | 0.00 | 0.00 | 0.00 | 33 | |
| 20260503221400 | 17 | 318 | 1.6 | 16.1 | 0.00 | 0.00 | 0.00 | 34 | |
| 20260503221159 | 17 | 314 | 1.6 | 16.1 | 0.00 | 0.00 | 0.00 | 33 | |
| 20260503221004 | 17 | 313 | 3.2 | 16.1 | 0.00 | 0.00 | 0.00 | 33 | |
| 20260503220800 | 17 | 4 | 6.4 | 16.1 | 0.00 | 0.00 | 0.00 | 32 | |
| 20260503220600 | 17 | 345 | 8.0 | 16.1 | 0.00 | 0.00 | 0.00 | 33 | |
| 20260503220359 | 17 | 350 | 6.4 | 16.1 | 0.00 | 0.00 | 0.00 | 33 | |
| 20260503220159 | 17 | 297 | 3.2 | 17.7 | 0.00 | 0.00 | 0.00 | 33 | |
| 20260503220005 | 17 | 335 | 1.6 | 17.7 | 0.00 | 0.00 | 0.00 | 31 | |
| 20260503215800 | 17 | 280 | 6.4 | 17.7 | 0.00 | 0.00 | 0.00 | 30 | |
| 20260503215600 | 17 | 290 | 6.4 | 17.7 | 0.00 | 0.00 | 0.00 | 34 | |
| 20260503215400 | 17 | 298 | 3.2 | 14.5 | 0.00 | 0.00 | 0.00 | 35 | |
| 20260503215200 | 17 | 314 | 6.4 | 14.5 | 0.00 | 0.00 | 0.00 | 34 | |
| 20260503215004 | 17 | 243 | 3.2 | 12.9 | 0.00 | 0.00 | 0.00 | 35 | |
| 20260503214800 | 17 | 230 | 4.8 | 12.9 | 0.00 | 0.00 | 0.00 | 35 | |
| 20260503214601 | 17 | 25 | 4.8 | 9.7 | 0.00 | 0.00 | 0.00 | 32 | |
| 20260503214401 | 17 | 332 | 3.2 | 9.7 | 0.00 | 0.00 | 0.00 | 32 | |
| 20260503214005 | 17 | 216 | 4.8 | 20.9 | 0.00 | 0.00 | 0.00 | 33 | |
| 20260503213758 | 17 | 204 | 1.6 | 20.9 | 0.00 | 0.00 | 0.00 | 33 | |
| 20260503213559 | 17 | 233 | 3.2 | 20.9 | 0.00 | 0.00 | 0.00 | 34 | |
| 20260503213400 | 17 | 247 | 11.3 | 20.9 | 0.00 | 0.00 | 0.00 | 31 | |
| 20260503213201 | 17 | 243 | 6.4 | 17.7 | 0.00 | 0.00 | 0.00 | 34 | |
| 20260503213005 | 17 | 256 | 4.8 | 14.5 | 0.00 | 0.00 | 0.00 | 32 | |
| 20260503212800 | 17 | 297 | 4.8 | 14.5 | 0.00 | 0.00 | 0.00 | 31 | |
| 20260503212600 | 17 | 242 | 4.8 | 14.5 | 0.00 | 0.00 | 0.00 | 35 | |
| 20260503212400 | 17 | 234 | 6.4 | 14.5 | 0.00 | 0.00 | 0.00 | 35 | |
| 20260503212159 | 17 | 189 | 1.6 | 14.5 | 0.00 | 0.00 | 0.00 | 35 | |
| 20260503211759 | 17 | 342 | 6.4 | 19.3 | 0.00 | 0.00 | 0.00 | 33 | |
| 20260503211400 | 17 | 354 | 6.4 | 19.3 | 0.00 | 0.00 | 0.00 | 33 | |
| 20260503211201 | 17 | 321 | 6.4 | 19.3 | 0.00 | 0.00 | 0.00 | 32 | |
| 20260503211004 | 17 | 266 | 6.4 | 19.3 | 0.00 | 0.00 | 0.00 | 32 | |
| 20260503210400 | 17 | 253 | 9.7 | 19.3 | 0.00 | 0.00 | 0.00 | 35 | |
| 20260503210200 | 17 | 229 | 8.0 | 17.7 | 0.00 | 0.00 | 0.00 | 35 | |
| 20260503205802 | 17 | 249 | 4.8 | 17.7 | 0.00 | 0.00 | 0.00 | 36 | |
| 20260503205559 | 17 | 251 | 8.0 | 17.7 | 0.00 | 0.00 | 0.00 | 35 | |
| 20260503205159 | 16 | 354 | 3.2 | 11.3 | 0.00 | 0.00 | 0.00 | 35 | |
| 20260503205005 | 17 | 320 | 4.8 | 14.5 | 0.00 | 0.00 | 0.00 | 34 | |
| 20260503204800 | 17 | 354 | 6.4 | 14.5 | 0.00 | 0.00 | 0.00 | 34 | |
| 20260503204400 | 17 | 8 | 8.0 | 14.5 | 0.00 | 0.00 | 0.00 | 33 | |
| 20260503204200 | 17 | 311 | 9.7 | 14.5 | 0.00 | 0.00 | 0.00 | 33 | |
| 20260503204004 | 17 | 347 | 6.4 | 12.9 | 0.00 | 0.00 | 0.00 | 34 | |
| 20260503203601 | 17 | 256 | 6.4 | 12.9 | 0.00 | 0.00 | 0.00 | 36 | |
| 20260503203400 | 17 | 293 | 3.2 | 12.9 | 0.00 | 0.00 | 0.00 | 35 | |
| 20260503203006 | 16 | 24 | 4.8 | 14.5 | 0.00 | 0.00 | 0.00 | 34 | |
| 20260503202800 | 16 | 185 | 6.4 | 16.1 | 0.00 | 0.00 | 0.00 | 36 | |
| 20260503202559 | 16 | 272 | 3.2 | 16.1 | 0.00 | 0.00 | 0.00 | 34 | |
| 20260503202159 | 16 | 291 | 8.0 | 16.1 | 0.00 | 0.00 | 0.00 | 34 | |
| 20260503202003 | 16 | 33 | 4.8 | 14.5 | 0.00 | 0.00 | 0.00 | 36 | |
| 20260503201800 | 16 | 315 | 6.4 | 14.5 | 0.00 | 0.00 | 0.00 | 36 | |
| 20260503201600 | 16 | 333 | 8.0 | 14.5 | 0.00 | 0.00 | 0.00 | 37 | |
| 20260503201401 | 16 | 202 | 3.2 | 14.5 | 0.00 | 0.00 | 0.00 | 39 | |
| 20260503201200 | 16 | 189 | 1.6 | 14.5 | 0.00 | 0.00 | 0.00 | 36 | |
| 20260503201004 | 16 | 296 | 4.8 | 14.5 | 0.00 | 0.00 | 0.00 | 37 | |
| 20260503200800 | 16 | 292 | 4.8 | 14.5 | 0.00 | 0.00 | 0.00 | 36 | |
| 20260503200559 | 16 | 274 | 4.8 | 14.5 | 0.00 | 0.00 | 0.00 | 38 | |
| 20260503200400 | 16 | 354 | 4.8 | 14.5 | 0.00 | 0.00 | 0.00 | 36 | |
| 20260503200200 | 16 | 354 | 9.7 | 14.5 | 0.00 | 0.00 | 0.00 | 37 | |
| 20260503200006 | 16 | 341 | 4.8 | 11.3 | 0.00 | 0.00 | 0.00 | 36 | |
| 20260503195801 | 16 | 318 | 4.8 | 11.3 | 0.00 | 0.00 | 0.00 | 37 | |
| 20260503195600 | 16 | 313 | 4.8 | 17.7 | 0.00 | 0.00 | 0.00 | 35 | |
| 20260503195400 | 16 | 345 | 4.8 | 17.7 | 0.00 | 0.00 | 0.00 | 35 | |
| 20260503195200 | 16 | 339 | 6.4 | 17.7 | 0.00 | 0.00 | 0.00 | 35 | |
| 20260503195004 | 16 | 293 | 6.4 | 17.7 | 0.00 | 0.00 | 0.00 | 36 | |
| 20260503194800 | 16 | 257 | 9.7 | 17.7 | 0.00 | 0.00 | 0.00 | 36 | |
| 20260503194600 | 16 | 297 | 8.0 | 17.7 | 0.00 | 0.00 | 0.00 | 35 | |
| 20260503194359 | 16 | 343 | 6.4 | 17.7 | 0.00 | 0.00 | 0.00 | 34 | |
| 20260503194201 | 16 | 354 | 4.8 | 17.7 | 0.00 | 0.00 | 0.00 | 36 | |
| 20260503194004 | 16 | 265 | 6.4 | 17.7 | 0.00 | 0.00 | 0.00 | 35 | |
| 20260503193800 | 16 | 212 | 8.0 | 16.1 | 0.00 | 0.00 | 0.00 | 35 | |
| 20260503193600 | 16 | 336 | 8.0 | 16.1 | 0.00 | 0.00 | 0.00 | 36 | |
| 20260503193359 | 16 | 238 | 6.4 | 16.1 | 0.00 | 0.00 | 0.00 | 35 | |
| 20260503193200 | 16 | 255 | 8.0 | 17.7 | 0.00 | 0.00 | 0.00 | 37 | |
| 20260503193005 | 16 | 337 | 6.4 | 16.1 | 0.00 | 0.00 | 0.00 | 35 | |
| 20260503192759 | 16 | 330 | 6.4 | 17.7 | 0.00 | 0.00 | 0.00 | 36 | |
| 20260503192600 | 16 | 332 | 4.8 | 17.7 | 0.00 | 0.00 | 0.00 | 36 | |
| 20260503192359 | 16 | 330 | 4.8 | 25.7 | 0.00 | 0.00 | 0.00 | 36 | |
| 20260503192200 | 16 | 348 | 9.7 | 25.7 | 0.00 | 0.00 | 0.00 | 36 | |
| 20260503192005 | 16 | 300 | 6.4 | 25.7 | 0.00 | 0.00 | 0.00 | 34 | |
| 20260503191759 | 16 | 338 | 9.7 | 25.7 | 0.00 | 0.00 | 0.00 | 36 | |
| 20260503191400 | 16 | 258 | 6.4 | 16.1 | 0.00 | 0.00 | 0.00 | 37 | |
| 20260503191200 | 16 | 245 | 6.4 | 16.1 | 0.00 | 0.00 | 0.00 | 36 | |
| 20260503191004 | 16 | 179 | 6.4 | 17.7 | 0.00 | 0.00 | 0.00 | 38 | |
| 20260503190801 | 16 | 4 | 8.0 | 19.3 | 0.00 | 0.00 | 0.00 | 38 | |
| 20260503190401 | 16 | 191 | 4.8 | 19.3 | 0.00 | 0.00 | 0.00 | 39 | |
| 20260503190006 | 16 | 241 | 8.0 | 25.7 | 0.00 | 0.00 | 0.00 | 36 | |
| 20260503185800 | 16 | 4 | 6.4 | 25.7 | 0.00 | 0.00 | 0.00 | 38 | |
| 20260503185559 | 16 | 345 | 8.0 | 25.7 | 0.00 | 0.00 | 0.00 | 36 | |
| 20260503185400 | 16 | 14 | 9.7 | 25.7 | 0.00 | 0.00 | 0.00 | 36 | |
| 20260503185201 | 16 | 4 | 4.8 | 19.3 | 0.00 | 0.00 | 0.00 | 37 | |
| 20260503184600 | 16 | 242 | 6.4 | 22.5 | 0.00 | 0.00 | 0.00 | 40 | |
| 20260503184005 | 15 | 239 | 6.4 | 24.1 | 0.00 | 0.00 | 0.00 | 38 | |
| 20260503183800 | 15 | 255 | 8.0 | 24.1 | 0.00 | 0.00 | 0.00 | 40 | |
| 20260503183600 | 15 | 41 | 8.0 | 24.1 | 0.00 | 0.00 | 0.00 | 38 | |
| 20260503183400 | 15 | 359 | 12.9 | 24.1 | 0.00 | 0.00 | 0.00 | 36 | |
| 20260503183201 | 15 | 23 | 9.7 | 22.5 | 0.00 | 0.00 | 0.00 | 35 | |
| 20260503183006 | 15 | 4 | 8.0 | 22.5 | 0.00 | 0.00 | 0.00 | 35 | |
| 20260503182400 | 15 | 297 | 9.7 | 22.5 | 0.00 | 0.00 | 0.00 | 37 | |
| 20260503182201 | 15 | 218 | 4.8 | 16.1 | 0.00 | 0.00 | 0.00 | 36 | |
| 20260503182006 | 15 | 345 | 8.0 | 16.1 | 0.00 | 0.00 | 0.00 | 36 | |
| 20260503181759 | 15 | 8 | 6.4 | 16.1 | 0.00 | 0.00 | 0.00 | 36 | |
| 20260503181359 | 16 | 339 | 6.4 | 14.5 | 0.00 | 0.00 | 0.00 | 35 | |
| 20260503181201 | 16 | 228 | 6.4 | 12.9 | 0.00 | 0.00 | 0.00 | 38 | |
| 20260503181005 | 16 | 305 | 6.4 | 14.5 | 0.00 | 0.00 | 0.00 | 36 | |
| 20260503180800 | 16 | 310 | 4.8 | 27.4 | 0.00 | 0.00 | 0.00 | 39 | |
| 20260503180601 | 16 | 313 | 3.2 | 27.4 | 0.00 | 0.00 | 0.00 | 37 | |
| 20260503180159 | 15 | 274 | 8.0 | 27.4 | 0.00 | 0.00 | 0.00 | 38 | |
| 20260503180005 | 15 | 235 | 8.0 | 27.4 | 0.00 | 0.00 | 0.00 | 38 | |
| 20260503175159 | 15 | 226 | 9.7 | 20.9 | 0.00 | 0.00 | 0.00 | 41 | |
| 20260503175004 | 15 | 166 | 6.4 | 20.9 | 0.00 | 0.00 | 0.00 | 39 | |
| 20260503174759 | 15 | 315 | 6.4 | 20.9 | 0.00 | 0.00 | 0.00 | 40 | |
| 20260503174400 | 15 | 328 | 11.3 | 20.9 | 0.00 | 0.00 | 0.00 | 37 | |
| 20260503174200 | 15 | 325 | 12.9 | 20.9 | 0.00 | 0.00 | 0.00 | 36 | |
| 20260503174005 | 15 | 359 | 11.3 | 17.7 | 0.00 | 0.00 | 0.00 | 35 | |
| 20260503173800 | 15 | 25 | 8.0 | 19.3 | 0.00 | 0.00 | 0.00 | 36 | |
| 20260503173601 | 15 | 346 | 11.3 | 20.9 | 0.00 | 0.00 | 0.00 | 35 | |
| 20260503173401 | 15 | 359 | 6.4 | 20.9 | 0.00 | 0.00 | 0.00 | 35 | |
| 20260503173200 | 15 | 35 | 6.4 | 20.9 | 0.00 | 0.00 | 0.00 | 36 | |
| 20260503173005 | 15 | 305 | 6.4 | 20.9 | 0.00 | 0.00 | 0.00 | 38 | |
| 20260503172800 | 15 | 349 | 9.7 | 20.9 | 0.00 | 0.00 | 0.00 | 37 | |
| 20260503172559 | 15 | 243 | 6.4 | 12.9 | 0.00 | 0.00 | 0.00 | 38 | |
| 20260503172200 | 15 | 259 | 8.0 | 27.4 | 0.00 | 0.00 | 0.00 | 36 | |
| 20260503172004 | 15 | 349 | 6.4 | 27.4 | 0.00 | 0.00 | 0.00 | 37 | |
| 20260503171759 | 15 | 329 | 11.3 | 27.4 | 0.00 | 0.00 | 0.00 | 37 | |
| 20260503171600 | 15 | 343 | 9.7 | 27.4 | 0.00 | 0.00 | 0.00 | 38 | |
| 20260503171401 | 14 | 347 | 6.4 | 27.4 | 0.00 | 0.00 | 0.00 | 38 | |
| 20260503171159 | 14 | 4 | 4.8 | 17.7 | 0.00 | 0.00 | 0.00 | 39 | |
| 20260503171004 | 14 | 248 | 4.8 | 22.5 | 0.00 | 0.00 | 0.00 | 42 | |
| 20260503170801 | 14 | 20 | 8.0 | 24.1 | 0.00 | 0.00 | 0.00 | 39 | |
| 20260503170400 | 14 | 295 | 6.4 | 24.1 | 0.00 | 0.00 | 0.00 | 40 | |
| 20260503170159 | 13 | 309 | 9.7 | 24.1 | 0.00 | 0.00 | 0.00 | 40 | |
| 20260503160200 | 13 | 283 | 6.4 | 16.1 | 0.00 | 0.00 | 0.00 | 41 | |
| 20260503151004 | 12 | 301 | 9.7 | 16.1 | 0.00 | 0.00 | 0.00 | 43 | |
| 20260503150759 | 12 | 52 | 8.0 | 16.1 | 0.00 | 0.00 | 0.00 | 42 | |
| 20260503150600 | 11 | 332 | 6.4 | 16.1 | 0.00 | 0.00 | 0.00 | 41 | |
| 20260503150359 | 11 | 304 | 6.4 | 16.1 | 0.00 | 0.00 | 0.00 | 43 | |
| 20260503150200 | 11 | 290 | 4.8 | 14.5 | 0.00 | 0.00 | 0.00 | 46 | |
| 20260503140201 | 10 | 296 | 8.0 | 25.7 | 0.00 | 0.00 | 0.00 | 49 |